createdAt,value
2022-12-27T00:01:16.676Z,71.28
2022-12-27T00:03:43.849Z,71.33
2022-12-27T00:06:22.003Z,71.43
2022-12-27T00:08:49.256Z,72.14
2022-12-27T00:11:17.417Z,72.22
2022-12-27T00:13:44.650Z,72.55
2022-12-27T00:16:13.391Z,72.65
2022-12-27T00:18:40.731Z,72.52
2022-12-27T00:21:08.118Z,72.18
2022-12-27T00:23:36.864Z,72.72
2022-12-27T00:26:08.328Z,72.95
2022-12-27T00:28:35.447Z,73.10
2022-12-27T00:31:03.725Z,72.68
2022-12-27T00:33:31.800Z,73.02
2022-12-27T00:35:59.076Z,73.30
2022-12-27T00:38:26.136Z,73.55
2022-12-27T00:40:52.690Z,73.45
2022-12-27T00:43:19.412Z,73.21
2022-12-27T00:45:46.111Z,73.45
2022-12-27T00:48:12.974Z,73.82
2022-12-27T00:50:40.660Z,73.79
2022-12-27T00:53:08.137Z,74.40
2022-12-27T00:55:34.826Z,74.60
2022-12-27T00:58:01.461Z,74.68
2022-12-27T01:00:28.142Z,74.60
2022-12-27T01:02:54.667Z,74.63
2022-12-27T01:05:22.067Z,74.65
2022-12-27T01:07:48.712Z,74.75
2022-12-27T01:10:15.582Z,74.71
2022-12-27T01:12:42.319Z,75.26
2022-12-27T01:15:09.657Z,74.94
2022-12-27T01:17:36.283Z,74.87
2022-12-27T01:20:02.960Z,74.64
2022-12-27T01:22:29.548Z,74.13
2022-12-27T01:24:56.213Z,73.54
2022-12-27T01:27:22.855Z,73.27
2022-12-27T01:29:49.457Z,73.01
2022-12-27T01:32:15.965Z,73.11
2022-12-27T01:34:42.600Z,72.89
2022-12-27T01:37:09.173Z,72.38
2022-12-27T01:39:35.831Z,73.02
2022-12-27T01:42:21.117Z,73.33
2022-12-27T01:44:57.884Z,73.25
2022-12-27T01:47:27.720Z,73.97
2022-12-27T01:49:58.246Z,74.57
2022-12-27T01:52:26.707Z,74.70
2022-12-27T01:54:54.554Z,75.43
2022-12-27T01:57:21.639Z,76.06
2022-12-27T01:59:48.619Z,75.30
2022-12-27T02:02:15.425Z,75.42
2022-12-27T02:04:42.068Z,75.11
2022-12-27T02:07:08.706Z,74.60
2022-12-27T02:09:49.294Z,74.79
2022-12-27T02:12:16.128Z,74.55
2022-12-27T02:14:44.113Z,74.74
2022-12-27T02:17:12.296Z,75.34
2022-12-27T02:19:41.963Z,75.11
2022-12-27T02:22:11.297Z,75.03
2022-12-27T02:25:00.170Z,75.43
2022-12-27T02:27:39.748Z,74.94
2022-12-27T02:30:06.899Z,75.05
2022-12-27T02:32:36.737Z,75.16
2022-12-27T02:35:09.498Z,74.80
2022-12-27T02:37:39.709Z,74.81
2022-12-27T02:40:27.386Z,74.65
2022-12-27T02:43:13.270Z,74.27
2022-12-27T02:46:06.085Z,74.47
2022-12-27T02:48:51.241Z,74.08
2022-12-27T02:51:50.266Z,74.25
2022-12-27T02:54:25.878Z,75.04
2022-12-27T02:57:09.448Z,75.01
2022-12-27T03:00:13.232Z,75.31
2022-12-27T03:03:07.816Z,74.77
2022-12-27T03:06:13.152Z,75.00
2022-12-27T03:08:49.884Z,74.46
2022-12-27T03:11:35.858Z,74.53
2022-12-27T03:14:30.217Z,74.34
2022-12-27T03:17:01.962Z,74.39
2022-12-27T03:19:50.185Z,73.87
2022-12-27T03:22:37.376Z,74.69
2022-12-27T03:25:23.279Z,75.03
2022-12-27T03:28:10.759Z,75.18
2022-12-27T03:30:56.898Z,75.03
2022-12-27T03:33:25.117Z,75.82
2022-12-27T03:36:10.273Z,76.76
2022-12-27T03:38:47.171Z,77.26
2022-12-27T03:41:39.011Z,76.92
2022-12-27T03:44:24.223Z,77.05
2022-12-27T03:46:56.124Z,77.58
2022-12-27T03:49:41.451Z,77.02
2022-12-27T03:52:08.100Z,76.63
2022-12-27T03:54:41.967Z,76.78
2022-12-27T03:57:11.564Z,76.90
2022-12-27T03:59:38.667Z,76.99
2022-12-27T04:02:05.974Z,76.99
2022-12-27T04:04:32.990Z,77.26
2022-12-27T04:06:59.590Z,76.88
2022-12-27T04:09:45.023Z,76.96
2022-12-27T04:12:30.853Z,76.86
2022-12-27T04:15:15.920Z,76.52
2022-12-27T04:18:01.743Z,75.30
2022-12-27T04:20:47.166Z,75.08
2022-12-27T04:23:32.441Z,74.58
2022-12-27T04:26:17.679Z,74.66
2022-12-27T04:29:02.769Z,74.50
2022-12-27T04:31:47.834Z,74.28
2022-12-27T04:34:33.292Z,74.60
2022-12-27T04:36:59.951Z,74.39
2022-12-27T04:39:26.498Z,74.27
2022-12-27T04:42:11.712Z,74.75
2022-12-27T04:44:56.989Z,74.74
2022-12-27T04:47:42.396Z,75.33
2022-12-27T04:50:53.953Z,75.19
2022-12-27T04:53:40.054Z,75.16
2022-12-27T04:56:07.089Z,74.80
2022-12-27T04:58:33.683Z,74.54
2022-12-27T05:01:20.452Z,74.94
2022-12-27T05:03:49.175Z,74.22
2022-12-27T05:06:16.929Z,74.55
2022-12-27T05:09:10.079Z,74.49
2022-12-27T05:11:55.264Z,74.11
2022-12-27T05:14:21.920Z,73.97
2022-12-27T05:16:48.563Z,73.50
2022-12-27T05:19:15.561Z,73.53
2022-12-27T05:22:03.839Z,73.51
2022-12-27T05:24:49.179Z,73.60
2022-12-27T05:27:15.980Z,73.73
2022-12-27T05:29:42.539Z,73.73
2022-12-27T05:32:13.335Z,79.48
2022-12-27T05:34:40.701Z,73.54
2022-12-27T05:37:07.275Z,73.33
2022-12-27T05:39:33.907Z,73.33
2022-12-27T05:42:00.483Z,73.20
2022-12-27T05:44:27.123Z,73.85
2022-12-27T05:46:54.101Z,73.75
2022-12-27T05:49:21.612Z,73.56
2022-12-27T05:51:49.044Z,73.57
2022-12-27T05:54:15.743Z,74.32
2022-12-27T05:56:42.375Z,74.61
2022-12-27T05:59:09.096Z,75.11
2022-12-27T06:01:35.782Z,74.84
2022-12-27T06:04:02.711Z,74.73
2022-12-27T06:06:29.257Z,74.54
2022-12-27T06:08:55.869Z,74.94
2022-12-27T06:11:22.454Z,74.96
2022-12-27T06:13:50.706Z,74.78
2022-12-27T06:16:17.754Z,74.39
2022-12-27T06:18:44.657Z,74.33
2022-12-27T06:21:15.948Z,75.07
2022-12-27T06:23:44.720Z,74.97
2022-12-27T06:26:12.596Z,74.17
2022-12-27T06:28:39.188Z,74.17
2022-12-27T06:31:05.945Z,74.43
2022-12-27T06:33:32.724Z,74.24
2022-12-27T06:35:59.532Z,74.28
2022-12-27T06:38:26.267Z,74.19
2022-12-27T06:40:52.848Z,74.42
2022-12-27T06:43:19.481Z,74.47
2022-12-27T06:45:54.987Z,74.94
2022-12-27T06:48:21.616Z,75.30
2022-12-27T06:50:48.627Z,75.00
2022-12-27T06:53:15.330Z,75.32
2022-12-27T06:55:41.852Z,74.82
2022-12-27T06:58:08.417Z,74.91
2022-12-27T07:00:34.993Z,74.70
2022-12-27T07:03:03.089Z,74.79
2022-12-27T07:05:29.998Z,74.97
2022-12-27T07:07:56.597Z,74.53
2022-12-27T07:10:23.284Z,74.38
2022-12-27T07:12:49.809Z,74.54
2022-12-27T07:15:16.422Z,74.41
2022-12-27T07:17:42.933Z,74.04
2022-12-27T07:20:09.801Z,73.66
2022-12-27T07:22:36.406Z,73.73
2022-12-27T07:25:03.106Z,74.21
2022-12-27T07:27:29.664Z,74.63
2022-12-27T07:29:56.353Z,74.72
2022-12-27T07:32:22.910Z,74.84
2022-12-27T07:34:49.560Z,74.60
2022-12-27T07:37:17.762Z,74.50
2022-12-27T07:39:44.769Z,74.43
2022-12-27T07:42:11.344Z,74.32
2022-12-27T07:44:38.107Z,73.76
2022-12-27T07:47:04.955Z,74.02
2022-12-27T07:49:31.594Z,74.38
2022-12-27T07:51:58.225Z,74.28
2022-12-27T07:54:24.856Z,74.81
2022-12-27T07:56:51.431Z,74.68
2022-12-27T07:59:18.092Z,75.09
2022-12-27T08:02:03.263Z,74.14
2022-12-27T08:04:30.386Z,74.07
2022-12-27T08:07:00.684Z,73.86
2022-12-27T08:09:29.340Z,73.52
2022-12-27T08:11:56.024Z,73.25
2022-12-27T08:14:22.719Z,72.68
2022-12-27T08:16:49.336Z,72.71
2022-12-27T08:19:15.985Z,72.69
2022-12-27T08:21:42.527Z,73.84
2022-12-27T08:24:09.130Z,76.20
2022-12-27T08:26:35.723Z,77.36
2022-12-27T08:29:02.343Z,76.13
2022-12-27T08:31:28.919Z,72.20
2022-12-27T08:33:58.612Z,72.55
2022-12-27T08:39:12.369Z,71.76
2022-12-27T08:41:39.355Z,67.83
2022-12-27T08:44:06.536Z,67.49
2022-12-27T08:46:33.226Z,67.60
2022-12-27T08:48:59.983Z,68.32
2022-12-27T08:51:35.975Z,67.68
2022-12-27T08:54:07.257Z,67.84
2022-12-27T08:56:33.828Z,67.87
2022-12-27T08:59:00.444Z,67.89
2022-12-27T09:01:27.247Z,67.39
2022-12-27T09:03:54.044Z,68.15
2022-12-27T09:06:21.808Z,67.90
2022-12-27T09:08:49.247Z,66.64
2022-12-27T09:11:17.334Z,67.20
2022-12-27T09:13:44.050Z,66.82
2022-12-27T09:16:15.068Z,67.66
2022-12-27T09:18:42.181Z,66.54
2022-12-27T09:21:10.383Z,66.24
2022-12-27T09:23:37.655Z,66.23
2022-12-27T09:26:05.237Z,65.69
2022-12-27T09:28:32.084Z,66.44
2022-12-27T09:30:58.678Z,65.66
2022-12-27T09:33:25.324Z,64.81
2022-12-27T09:35:51.858Z,65.10
2022-12-27T09:38:18.703Z,65.47
2022-12-27T09:40:55.591Z,64.18
2022-12-27T09:43:27.711Z,64.35
2022-12-27T09:45:56.738Z,63.81
2022-12-27T09:48:32.767Z,64.00
2022-12-27T09:51:03.107Z,64.48
2022-12-27T09:53:51.148Z,63.81
2022-12-27T09:56:23.352Z,63.33
2022-12-27T09:58:51.786Z,63.49
2022-12-27T10:01:21.704Z,62.31
2022-12-27T10:03:49.289Z,62.13
2022-12-27T10:06:29.496Z,61.97
2022-12-27T10:09:06.421Z,61.98
2022-12-27T10:11:52.544Z,61.81
2022-12-27T10:14:19.089Z,62.15
2022-12-27T10:16:50.624Z,60.94
2022-12-27T10:19:23.876Z,61.50
2022-12-27T10:22:08.834Z,60.85
2022-12-27T10:24:45.844Z,61.10
2022-12-27T10:27:30.887Z,61.27
2022-12-27T10:29:59.198Z,60.86
2022-12-27T10:32:26.227Z,61.15
2022-12-27T10:34:56.892Z,60.72
2022-12-27T10:37:23.605Z,60.93
2022-12-27T10:39:50.164Z,60.28
2022-12-27T10:42:22.732Z,60.24
2022-12-27T10:44:49.321Z,59.73
2022-12-27T10:47:16.296Z,59.79
2022-12-27T10:49:44.832Z,59.55
2022-12-27T10:52:17.979Z,59.55
2022-12-27T10:54:51.967Z,58.96
2022-12-27T10:57:25.971Z,58.75
2022-12-27T11:00:11.228Z,58.56
2022-12-27T11:02:48.781Z,60.95
2022-12-27T11:05:20.728Z,58.21
2022-12-27T11:07:47.368Z,57.99
2022-12-27T11:10:23.927Z,57.75
2022-12-27T11:12:57.149Z,57.75
2022-12-27T11:15:24.399Z,58.08
2022-12-27T11:17:53.786Z,57.96
2022-12-27T11:20:22.335Z,57.79
2022-12-27T11:22:52.359Z,57.99
2022-12-27T11:25:19.353Z,57.40
2022-12-27T11:27:52.947Z,57.49
2022-12-27T11:30:39.831Z,57.26
2022-12-27T11:33:26.388Z,56.86
2022-12-27T11:35:54.350Z,56.90
2022-12-27T11:38:25.270Z,56.46
2022-12-27T11:40:58.811Z,56.39
2022-12-27T11:43:27.808Z,56.65
2022-12-27T11:45:55.875Z,56.74
2022-12-27T11:48:28.295Z,56.61
2022-12-27T11:50:55.540Z,56.49
2022-12-27T11:53:42.050Z,56.07
2022-12-27T11:56:16.989Z,56.12
2022-12-27T11:58:49.823Z,55.76
2022-12-27T12:01:48.853Z,55.21
2022-12-27T12:04:21.629Z,55.38
2022-12-27T12:07:03.673Z,55.02
2022-12-27T12:09:48.805Z,54.87
2022-12-27T12:12:21.295Z,54.76
2022-12-27T12:14:51.738Z,54.87
2022-12-27T12:17:32.471Z,54.52
2022-12-27T12:20:14.217Z,54.34
2022-12-27T12:22:59.977Z,54.08
2022-12-27T12:25:32.416Z,54.15
2022-12-27T12:28:47.260Z,54.19
2022-12-27T12:31:23.081Z,54.05
2022-12-27T12:34:07.782Z,54.10
2022-12-27T12:36:34.409Z,54.62
2022-12-27T12:39:06.923Z,55.75
2022-12-27T12:41:52.149Z,56.16
2022-12-27T12:44:31.744Z,56.09
2022-12-27T12:47:19.417Z,56.72
2022-12-27T12:50:07.944Z,56.43
2022-12-27T12:52:45.607Z,56.56
2022-12-27T12:55:12.165Z,56.91
2022-12-27T12:57:44.965Z,56.89
2022-12-27T13:00:15.289Z,57.63
2022-12-27T13:02:58.704Z,57.68
2022-12-27T13:05:40.759Z,56.95
2022-12-27T13:08:13.144Z,55.84
2022-12-27T13:10:42.608Z,54.83
2022-12-27T13:13:29.406Z,55.83
2022-12-27T13:15:56.090Z,57.78
2022-12-27T13:18:41.512Z,57.78
2022-12-27T13:21:28.392Z,55.47
2022-12-27T13:24:02.041Z,54.35
2022-12-27T13:26:38.593Z,55.46
2022-12-27T13:29:05.163Z,53.66
2022-12-27T13:31:58.974Z,53.84
2022-12-27T13:34:28.333Z,54.24
2022-12-27T13:37:13.440Z,54.61
2022-12-27T13:39:42.882Z,55.48
2022-12-27T13:42:18.445Z,55.40
2022-12-27T13:44:45.157Z,55.19
2022-12-27T13:47:12.406Z,54.59
2022-12-27T13:49:51.662Z,54.14
2022-12-27T13:52:36.833Z,54.61
2022-12-27T13:55:06.274Z,54.58
2022-12-27T13:57:51.353Z,54.77
2022-12-27T14:00:18.156Z,54.69
2022-12-27T14:02:44.892Z,55.29
2022-12-27T14:05:31.007Z,55.26
2022-12-27T14:08:16.263Z,55.37
2022-12-27T14:10:53.868Z,55.28
2022-12-27T14:13:34.435Z,55.10
2022-12-27T14:16:13.434Z,55.55
2022-12-27T14:18:40.050Z,55.40
2022-12-27T14:21:06.581Z,54.93
2022-12-27T14:23:51.857Z,54.96
2022-12-27T14:26:21.548Z,55.18
2022-12-27T14:29:06.814Z,55.12
2022-12-27T14:31:50.275Z,55.39
2022-12-27T14:34:57.430Z,55.35
2022-12-27T14:37:25.872Z,55.71
2022-12-27T14:40:11.334Z,55.78
2022-12-27T14:42:56.872Z,55.68
2022-12-27T14:45:32.667Z,56.21
2022-12-27T14:48:02.128Z,56.52
2022-12-27T14:50:47.310Z,56.51
2022-12-27T14:53:31.765Z,56.86
2022-12-27T14:56:16.944Z,57.38
2022-12-27T14:58:43.641Z,57.70
2022-12-27T15:01:28.790Z,57.78
2022-12-27T15:04:03.275Z,57.72
2022-12-27T15:06:33.070Z,57.86
2022-12-27T15:09:09.389Z,57.76
2022-12-27T15:11:47.793Z,57.91
2022-12-27T15:14:31.348Z,57.82
2022-12-27T15:17:06.898Z,58.10
2022-12-27T15:19:39.582Z,58.13
2022-12-27T15:22:13.172Z,57.74
2022-12-27T15:24:39.782Z,57.62
2022-12-27T15:27:06.366Z,57.63
2022-12-27T15:29:36.039Z,57.43
2022-12-27T15:32:05.472Z,57.38
2022-12-27T15:34:41.176Z,57.55
2022-12-27T15:37:27.730Z,57.38
2022-12-27T15:39:54.430Z,57.46
2022-12-27T15:42:43.399Z,57.43
2022-12-27T15:45:32.862Z,57.28
2022-12-27T15:48:18.074Z,57.31
2022-12-27T15:50:47.482Z,56.72
2022-12-27T15:53:22.866Z,57.15
2022-12-27T15:56:01.508Z,56.69
2022-12-27T15:58:28.335Z,56.40
2022-12-27T16:01:13.601Z,56.60
2022-12-27T16:03:41.839Z,56.58
2022-12-27T16:06:09.307Z,56.73
2022-12-27T16:08:37.867Z,56.78
2022-12-27T16:11:05.592Z,56.87
2022-12-27T16:13:41.376Z,57.08
2022-12-27T16:16:33.475Z,57.21
2022-12-27T16:19:13.017Z,57.45
2022-12-27T16:21:42.769Z,57.83
2022-12-27T16:24:16.517Z,57.97
2022-12-27T16:26:54.918Z,58.27
2022-12-27T16:29:24.573Z,58.37
2022-12-27T16:31:51.640Z,58.68
2022-12-27T16:34:23.940Z,59.04
2022-12-27T16:36:52.102Z,59.05
2022-12-27T16:39:28.249Z,59.22
2022-12-27T16:41:55.054Z,59.67
2022-12-27T16:44:33.163Z,59.91
2022-12-27T16:47:09.311Z,60.20
2022-12-27T16:49:55.620Z,60.39
2022-12-27T16:52:41.056Z,60.59
2022-12-27T16:55:13.549Z,60.81
2022-12-27T16:57:44.461Z,60.85
2022-12-27T17:00:11.154Z,61.17
2022-12-27T17:02:40.603Z,61.55
2022-12-27T17:05:16.334Z,61.65
2022-12-27T17:07:50.594Z,61.72
2022-12-27T17:10:35.400Z,61.96
2022-12-27T17:13:04.839Z,63.76
2022-12-27T17:15:32.061Z,62.25
2022-12-27T17:18:04.500Z,62.41
2022-12-27T17:20:31.380Z,62.28
2022-12-27T17:22:58.408Z,62.40
2022-12-27T17:25:30.084Z,62.42
2022-12-27T17:27:56.652Z,62.75
2022-12-27T17:30:33.866Z,62.92
2022-12-27T17:33:15.058Z,62.94
2022-12-27T17:36:20.261Z,63.11
2022-12-27T17:38:52.353Z,63.43
2022-12-27T17:41:47.665Z,63.34
2022-12-27T17:44:38.788Z,63.47
2022-12-27T17:47:24.000Z,63.77
2022-12-27T17:49:51.061Z,63.98
2022-12-27T17:52:37.370Z,63.96
2022-12-27T17:55:39.125Z,64.31
2022-12-27T17:58:07.779Z,64.67
2022-12-27T18:00:37.753Z,64.47
2022-12-27T18:03:07.935Z,64.79
2022-12-27T18:05:36.829Z,64.89
2022-12-27T18:08:05.098Z,65.00
2022-12-27T18:10:34.387Z,64.98
2022-12-27T18:13:02.965Z,65.27
2022-12-27T18:15:32.307Z,65.34
2022-12-27T18:18:00.304Z,65.30
2022-12-27T18:20:29.700Z,65.24
2022-12-27T18:23:02.046Z,65.49
2022-12-27T18:25:42.742Z,65.58
2022-12-27T18:28:16.565Z,65.76
2022-12-27T18:30:45.844Z,65.87
2022-12-27T18:33:13.749Z,66.28
2022-12-27T18:35:44.401Z,66.13
2022-12-27T18:38:14.387Z,66.38
2022-12-27T18:40:41.849Z,66.52
2022-12-27T18:43:15.329Z,66.58
2022-12-27T18:45:42.094Z,66.89
2022-12-27T18:48:14.640Z,66.91
2022-12-27T18:50:49.021Z,67.13
2022-12-27T18:53:45.790Z,67.15
2022-12-27T18:56:15.782Z,67.41
2022-12-27T18:59:01.108Z,67.38
2022-12-27T19:01:30.956Z,67.27
2022-12-27T19:04:19.163Z,66.86
2022-12-27T19:06:55.333Z,66.88
2022-12-27T19:09:23.770Z,67.05
2022-12-27T19:11:55.416Z,66.56
2022-12-27T19:14:22.773Z,66.53
2022-12-27T19:16:51.331Z,66.39
2022-12-27T19:19:20.388Z,66.15
2022-12-27T19:21:46.954Z,65.97
2022-12-27T19:24:19.858Z,65.93
2022-12-27T19:26:46.600Z,66.13
2022-12-27T19:29:14.664Z,66.10
2022-12-27T19:31:43.262Z,66.04
2022-12-27T19:34:13.210Z,66.02
2022-12-27T19:36:40.889Z,65.97
2022-12-27T19:39:19.118Z,66.14
2022-12-27T19:41:46.292Z,66.40
2022-12-27T19:44:12.974Z,66.58
2022-12-27T19:46:39.625Z,66.61
2022-12-27T19:51:55.771Z,66.79
2022-12-27T19:54:22.975Z,67.13
2022-12-27T19:56:49.743Z,68.11
2022-12-27T19:59:17.734Z,68.03
2022-12-27T20:01:45.589Z,68.00
2022-12-27T20:04:12.824Z,68.05
2022-12-27T20:06:39.621Z,68.45
2022-12-27T20:09:09.229Z,68.42
2022-12-27T20:11:36.037Z,68.65
2022-12-27T20:14:02.653Z,69.23
2022-12-27T20:16:29.258Z,68.86
2022-12-27T20:19:00.105Z,68.75
2022-12-27T20:21:26.707Z,69.08
2022-12-27T20:23:53.280Z,69.18
2022-12-27T20:26:21.412Z,69.09
2022-12-27T20:28:48.500Z,69.48
2022-12-27T20:31:16.753Z,70.05
2022-12-27T20:33:43.510Z,69.79
2022-12-27T20:36:10.488Z,70.42
2022-12-27T20:38:40.231Z,70.22
2022-12-27T20:41:11.429Z,70.10
2022-12-27T20:43:38.087Z,69.71
2022-12-27T20:46:09.059Z,69.53
2022-12-27T20:48:40.000Z,68.88
2022-12-27T20:51:07.704Z,68.80
2022-12-27T20:53:34.222Z,68.70
2022-12-27T20:56:01.285Z,68.59
2022-12-27T20:58:28.118Z,69.27
2022-12-27T21:00:54.890Z,69.41
2022-12-27T21:03:21.738Z,69.56
2022-12-27T21:05:48.451Z,70.05
2022-12-27T21:08:15.013Z,69.59
2022-12-27T21:10:41.707Z,69.68
2022-12-27T21:13:08.433Z,69.78
2022-12-27T21:15:42.124Z,69.67
2022-12-27T21:18:09.172Z,69.46
2022-12-27T21:20:35.737Z,69.75
2022-12-27T21:23:02.383Z,69.29
2022-12-27T21:25:28.966Z,69.20
2022-12-27T21:27:55.506Z,69.12
2022-12-27T21:30:22.066Z,68.93
2022-12-27T21:32:48.686Z,68.88
2022-12-27T21:35:16.257Z,69.40
2022-12-27T21:37:42.978Z,69.36
2022-12-27T21:40:09.928Z,69.17
2022-12-27T21:42:36.505Z,69.01
2022-12-27T21:45:03.189Z,69.47
2022-12-27T21:47:31.639Z,69.25
2022-12-27T21:49:58.162Z,69.41
2022-12-27T21:52:24.741Z,69.39
2022-12-27T21:54:51.332Z,69.20
2022-12-27T21:57:17.936Z,69.18
2022-12-27T21:59:44.502Z,69.42
2022-12-27T22:02:11.417Z,69.01
2022-12-27T22:04:38.176Z,68.98
2022-12-27T22:07:04.797Z,68.94
2022-12-27T22:09:31.374Z,69.17
2022-12-27T22:11:57.952Z,69.15
2022-12-27T22:14:25.763Z,68.99
2022-12-27T22:16:53.631Z,68.88
2022-12-27T22:19:20.189Z,69.00
2022-12-27T22:21:46.850Z,68.88
2022-12-27T22:24:19.246Z,68.89
2022-12-27T22:26:48.389Z,68.89
2022-12-27T22:29:15.001Z,68.80
2022-12-27T22:31:42.851Z,68.96
2022-12-27T22:34:09.525Z,68.93
2022-12-27T22:36:36.364Z,69.15
2022-12-27T22:39:03.590Z,69.49
2022-12-27T22:41:31.675Z,69.59
2022-12-27T22:44:03.098Z,69.97
2022-12-27T22:46:51.046Z,70.10
2022-12-27T22:49:17.323Z,69.99
2022-12-27T22:51:43.963Z,69.89
2022-12-27T22:54:10.669Z,70.05
2022-12-27T22:56:38.502Z,70.39
2022-12-27T22:59:10.006Z,70.42
2022-12-27T23:01:36.786Z,70.42
2022-12-27T23:04:04.724Z,70.82
2022-12-27T23:06:32.239Z,71.02
2022-12-27T23:08:59.215Z,71.51
2022-12-27T23:11:27.413Z,71.81
2022-12-27T23:13:59.374Z,71.69
2022-12-27T23:16:26.038Z,71.30
2022-12-27T23:18:52.763Z,70.72
2022-12-27T23:21:24.406Z,70.59
2022-12-27T23:23:51.772Z,70.19
2022-12-27T23:26:19.561Z,70.05
2022-12-27T23:28:46.794Z,69.95
2022-12-27T23:31:14.046Z,70.02
2022-12-27T23:33:41.713Z,69.92
2022-12-27T23:36:08.765Z,69.73
2022-12-27T23:38:35.559Z,69.53
2022-12-27T23:41:03.378Z,69.45
2022-12-27T23:43:51.500Z,69.49
2022-12-27T23:46:18.669Z,69.37
2022-12-27T23:48:45.276Z,69.53
2022-12-27T23:51:12.600Z,69.50
2022-12-27T23:53:39.307Z,69.58
2022-12-27T23:56:13.052Z,69.55
2022-12-27T23:58:39.678Z,69.31
